createdAt,value
2018-05-25T00:00:05.702Z,0
2018-05-25T00:01:15.665Z,0
2018-05-25T00:02:25.679Z,0
2018-05-25T00:03:35.648Z,0
2018-05-25T00:04:45.616Z,0
2018-05-25T00:05:55.599Z,0
2018-05-25T00:07:05.583Z,0
2018-05-25T00:08:15.540Z,0
2018-05-25T00:09:25.547Z,0
2018-05-25T00:10:35.529Z,0
2018-05-25T00:11:45.499Z,0
2018-05-25T00:12:55.478Z,0
2018-05-25T00:14:05.446Z,0
2018-05-25T00:15:15.162Z,0
2018-05-25T00:16:25.140Z,0
2018-05-25T00:17:35.115Z,0
2018-05-25T00:18:45.095Z,0
2018-05-25T00:19:54.821Z,0
2018-05-25T00:21:04.794Z,0
2018-05-25T00:22:14.762Z,0
2018-05-25T00:23:24.738Z,0
2018-05-25T00:24:34.716Z,0
2018-05-25T00:25:44.699Z,0
2018-05-25T00:26:54.666Z,0
2018-05-25T00:28:04.646Z,0
2018-05-25T00:29:14.631Z,0
2018-05-25T00:30:24.365Z,0
2018-05-25T00:31:34.341Z,0
2018-05-25T00:32:44.343Z,0
2018-05-25T00:33:54.074Z,0
2018-05-25T00:35:03.527Z,0
2018-05-25T00:36:12.979Z,0
2018-05-25T00:37:22.686Z,0
2018-05-25T00:38:32.414Z,0
2018-05-25T00:39:42.130Z,0
2018-05-25T00:40:51.856Z,0
2018-05-25T00:42:01.832Z,0
2018-05-25T00:43:11.538Z,0
2018-05-25T00:44:21.248Z,0
2018-05-25T00:45:31.214Z,0
2018-05-25T00:46:41.178Z,0
2018-05-25T00:47:50.903Z,0
2018-05-25T00:49:00.872Z,0
2018-05-25T00:50:10.580Z,0
2018-05-25T00:51:20.285Z,0
2018-05-25T00:52:30.268Z,0
2018-05-25T00:53:40.236Z,0
2018-05-25T00:54:50.210Z,0
2018-05-25T00:56:00.180Z,0
2018-05-25T00:57:09.888Z,0
2018-05-25T00:58:19.845Z,0
2018-05-25T00:59:29.820Z,0
2018-05-25T01:00:39.822Z,0
2018-05-25T01:01:49.538Z,0
2018-05-25T01:02:59.259Z,0
2018-05-25T01:04:08.976Z,0
2018-05-25T01:05:18.954Z,0
2018-05-25T01:06:28.925Z,0
2018-05-25T01:07:38.904Z,0
2018-05-25T01:08:48.658Z,0
2018-05-25T01:09:58.622Z,0
2018-05-25T01:11:08.592Z,0
2018-05-25T01:12:18.317Z,0
2018-05-25T01:13:28.022Z,0
2018-05-25T01:14:37.984Z,0
2018-05-25T01:15:47.948Z,0
2018-05-25T01:16:57.908Z,0
2018-05-25T01:18:07.631Z,0
2018-05-25T01:19:17.094Z,0
2018-05-25T01:20:26.810Z,0
2018-05-25T01:21:36.781Z,0
2018-05-25T01:22:46.507Z,0
2018-05-25T01:23:56.213Z,0
2018-05-25T01:25:06.195Z,0
2018-05-25T01:26:15.930Z,0
2018-05-25T01:27:25.903Z,0
2018-05-25T01:28:35.623Z,0
2018-05-25T01:29:45.347Z,0
2018-05-25T01:30:55.327Z,0
2018-05-25T01:32:05.041Z,0
2018-05-25T01:33:15.238Z,0
2018-05-25T01:34:24.946Z,0
2018-05-25T01:35:34.652Z,0
2018-05-25T01:36:44.619Z,0
2018-05-25T01:37:54.599Z,0
2018-05-25T01:39:04.331Z,0
2018-05-25T01:40:14.314Z,0
2018-05-25T01:41:23.763Z,0
2018-05-25T01:42:33.490Z,0
2018-05-25T01:43:43.463Z,0
2018-05-25T01:44:53.188Z,0
2018-05-25T01:46:02.901Z,0
2018-05-25T01:47:12.878Z,0
2018-05-25T01:48:22.332Z,0
2018-05-25T01:49:32.304Z,0
2018-05-25T01:50:42.016Z,0
2018-05-25T01:51:51.981Z,0
2018-05-25T01:53:01.941Z,0
2018-05-25T01:54:11.917Z,0
2018-05-25T01:55:21.628Z,0
2018-05-25T01:56:31.597Z,0
2018-05-25T01:57:41.569Z,0
2018-05-25T01:58:51.531Z,0
2018-05-25T02:00:01.504Z,0
2018-05-25T02:01:11.483Z,0
2018-05-25T02:02:21.472Z,0
2018-05-25T02:03:31.440Z,0
2018-05-25T02:04:41.401Z,0
2018-05-25T02:05:51.390Z,0
2018-05-25T02:07:01.398Z,0
2018-05-25T02:08:11.421Z,0
2018-05-25T02:09:21.392Z,0
2018-05-25T02:10:30.848Z,0
2018-05-25T02:11:40.303Z,4
2018-05-25T02:12:50.268Z,4
2018-05-25T02:14:00.228Z,0
2018-05-25T02:15:10.200Z,4
2018-05-25T02:16:19.903Z,4
2018-05-25T02:17:29.618Z,4
2018-05-25T02:18:39.375Z,4
2018-05-25T02:19:49.347Z,8
2018-05-25T02:20:59.317Z,4
2018-05-25T02:22:08.778Z,4
2018-05-25T02:23:18.748Z,8
2018-05-25T02:24:28.714Z,8
2018-05-25T02:25:38.674Z,12
2018-05-25T02:26:48.644Z,12
2018-05-25T02:27:58.351Z,16
2018-05-25T02:29:08.333Z,20
2018-05-25T02:30:18.310Z,24
2018-05-25T02:31:28.286Z,24
2018-05-25T02:32:38.259Z,28
2018-05-25T02:33:48.251Z,32
2018-05-25T02:34:58.223Z,40
2018-05-25T02:36:07.944Z,48
2018-05-25T02:37:17.918Z,56
2018-05-25T02:38:27.374Z,64
2018-05-25T02:39:37.348Z,72
2018-05-25T02:40:46.795Z,80
2018-05-25T02:41:56.776Z,92
2018-05-25T02:43:06.496Z,108
2018-05-25T02:44:16.222Z,124
2018-05-25T02:45:26.199Z,140
2018-05-25T02:46:36.168Z,160
2018-05-25T02:47:46.131Z,180
2018-05-25T02:48:56.112Z,204
2018-05-25T02:50:06.075Z,228
2018-05-25T02:51:15.810Z,260
2018-05-25T02:52:25.545Z,284
2018-05-25T02:53:35.005Z,320
2018-05-25T02:54:44.720Z,356
2018-05-25T02:55:54.722Z,392
2018-05-25T02:57:04.698Z,432
2018-05-25T02:58:14.665Z,472
2018-05-25T02:59:24.625Z,516
2018-05-25T03:00:34.619Z,564
2018-05-25T03:01:44.340Z,612
2018-05-25T03:02:54.051Z,664
2018-05-25T03:04:04.045Z,716
2018-05-25T03:05:14.020Z,776
2018-05-25T03:06:23.995Z,836
2018-05-25T03:07:33.961Z,892
2018-05-25T03:08:43.673Z,956
2018-05-25T03:09:53.386Z,1020
2018-05-25T03:11:03.368Z,1088
2018-05-25T03:12:13.328Z,1160
2018-05-25T03:13:23.322Z,1232
2018-05-25T03:14:33.039Z,1308
2018-05-25T03:15:42.749Z,1384
2018-05-25T03:16:52.796Z,1476
2018-05-25T03:18:02.831Z,1560
2018-05-25T03:19:12.805Z,1632
2018-05-25T03:20:22.510Z,1712
2018-05-25T03:21:32.476Z,1812
2018-05-25T03:22:42.453Z,1884
2018-05-25T03:23:52.175Z,1964
2018-05-25T03:25:02.146Z,2048
2018-05-25T03:26:11.982Z,2136
2018-05-25T03:27:21.696Z,2224
2018-05-25T03:28:31.661Z,2312
2018-05-25T03:29:41.112Z,2400
2018-05-25T03:30:51.089Z,2488
2018-05-25T03:32:01.070Z,2580
2018-05-25T03:33:10.791Z,2672
2018-05-25T03:34:20.766Z,2760
2018-05-25T03:35:29.969Z,2848
2018-05-25T03:36:39.953Z,2936
2018-05-25T03:37:49.926Z,3024
2018-05-25T03:38:59.898Z,3108
2018-05-25T03:40:09.884Z,3196
2018-05-25T03:41:19.345Z,3280
2018-05-25T03:42:29.321Z,3364
2018-05-25T03:43:39.026Z,3448
2018-05-25T03:44:48.993Z,3528
2018-05-25T03:45:58.959Z,3612
2018-05-25T03:47:08.937Z,3696
2018-05-25T03:48:18.666Z,3776
2018-05-25T03:49:28.635Z,3856
2018-05-25T03:50:38.612Z,3940
2018-05-25T03:51:48.583Z,4016
2018-05-25T03:52:58.547Z,4092
2018-05-25T03:54:08.515Z,4172
2018-05-25T03:55:18.520Z,4244
2018-05-25T03:56:28.496Z,4316
2018-05-25T03:57:38.476Z,4388
2018-05-25T03:58:48.444Z,4464
2018-05-25T03:59:58.414Z,4528
2018-05-25T04:01:08.395Z,4592
2018-05-25T04:02:18.104Z,4660
2018-05-25T04:03:27.811Z,4720
2018-05-25T04:04:37.784Z,4784
2018-05-25T04:05:47.759Z,4844
2018-05-25T04:06:57.223Z,4904
2018-05-25T04:08:07.231Z,4964
2018-05-25T04:09:17.213Z,5028
2018-05-25T04:10:27.178Z,5084
2018-05-25T04:11:37.131Z,5144
2018-05-25T04:12:47.098Z,5204
2018-05-25T04:13:56.863Z,5256
2018-05-25T04:15:06.830Z,5312
2018-05-25T04:16:16.823Z,5360
2018-05-25T04:17:26.531Z,5416
2018-05-25T04:18:36.242Z,5464
2018-05-25T04:19:46.218Z,5512
2018-05-25T04:20:56.193Z,5564
2018-05-25T04:22:06.173Z,5612
2018-05-25T04:23:16.148Z,5664
2018-05-25T04:24:26.125Z,5712
2018-05-25T04:25:35.856Z,5764
2018-05-25T04:26:45.825Z,5812
2018-05-25T04:27:55.530Z,5860
2018-05-25T04:29:05.243Z,5904
2018-05-25T04:30:15.214Z,5952
2018-05-25T04:31:25.182Z,5992
2018-05-25T04:32:34.895Z,6036
2018-05-25T04:33:44.613Z,6084
2018-05-25T04:34:54.587Z,6128
2018-05-25T04:36:04.605Z,6180
2018-05-25T04:37:13.802Z,6224
2018-05-25T04:38:23.769Z,6268
2018-05-25T04:39:33.772Z,6316
2018-05-25T04:40:43.740Z,6356
2018-05-25T04:41:53.455Z,6400
2018-05-25T04:43:03.429Z,6440
2018-05-25T04:44:13.135Z,6472
2018-05-25T04:45:23.121Z,6504
2018-05-25T04:46:32.835Z,6544
2018-05-25T04:47:42.822Z,6576
2018-05-25T04:48:52.537Z,6608
2018-05-25T04:50:02.266Z,6644
2018-05-25T04:51:12.239Z,6676
2018-05-25T04:52:21.973Z,6716
2018-05-25T04:53:32.012Z,6752
2018-05-25T04:54:41.979Z,6792
2018-05-25T04:55:51.966Z,6828
2018-05-25T04:57:01.680Z,6864
2018-05-25T04:58:11.666Z,6900
2018-05-25T04:59:21.632Z,6944
2018-05-25T05:00:31.342Z,6984
2018-05-25T05:01:41.051Z,7028
2018-05-25T05:02:50.767Z,7068
2018-05-25T05:04:00.733Z,7096
2018-05-25T05:05:10.793Z,7128
2018-05-25T05:06:20.774Z,7152
2018-05-25T05:07:30.772Z,7180
2018-05-25T05:08:40.507Z,7208
2018-05-25T05:09:50.222Z,7244
2018-05-25T05:11:00.193Z,7276
2018-05-25T05:12:09.904Z,7312
2018-05-25T05:13:19.363Z,7340
2018-05-25T05:14:29.080Z,7376
2018-05-25T05:15:38.795Z,7412
2018-05-25T05:16:48.761Z,7444
2018-05-25T05:17:58.752Z,7488
2018-05-25T05:19:08.476Z,7520
2018-05-25T05:20:18.448Z,7560
2018-05-25T05:21:28.439Z,7596
2018-05-25T05:22:38.414Z,7632
2018-05-25T05:23:48.151Z,7660
2018-05-25T05:24:58.142Z,7684
2018-05-25T05:26:08.128Z,7712
2018-05-25T05:27:18.109Z,7736
2018-05-25T05:28:27.821Z,7764
2018-05-25T05:29:37.795Z,7792
2018-05-25T05:30:47.768Z,7828
2018-05-25T05:31:57.738Z,7876
2018-05-25T05:33:07.454Z,7920
2018-05-25T05:34:17.444Z,7964
2018-05-25T05:35:27.416Z,8008
2018-05-25T05:36:37.381Z,8052
2018-05-25T05:37:47.352Z,8092
2018-05-25T05:38:57.338Z,8116
2018-05-25T05:40:07.329Z,8144
2018-05-25T05:41:17.354Z,8160
2018-05-25T05:42:27.333Z,8180
2018-05-25T05:43:37.299Z,8212
2018-05-25T05:44:47.274Z,8240
2018-05-25T05:45:56.984Z,8264
2018-05-25T05:47:06.974Z,8300
2018-05-25T05:48:16.687Z,8324
2018-05-25T05:49:26.669Z,8344
2018-05-25T05:50:36.647Z,8352
2018-05-25T05:51:46.358Z,8364
2018-05-25T05:52:56.331Z,8384
2018-05-25T05:54:06.060Z,8400
2018-05-25T05:55:16.043Z,8436
2018-05-25T05:56:26.041Z,8452
2018-05-25T05:57:36.028Z,8484
2018-05-25T05:58:46.056Z,8516
2018-05-25T05:59:56.042Z,8540
2018-05-25T06:01:05.774Z,8568
2018-05-25T06:02:15.778Z,8600
2018-05-25T06:03:25.775Z,8628
2018-05-25T06:04:35.756Z,8652
2018-05-25T06:05:45.730Z,8688
2018-05-25T06:06:55.457Z,8728
2018-05-25T06:08:05.430Z,8772
2018-05-25T06:09:15.179Z,8812
2018-05-25T06:10:25.164Z,8844
2018-05-25T06:11:34.892Z,8868
2018-05-25T06:12:44.360Z,8900
2018-05-25T06:13:53.838Z,8924
2018-05-25T06:15:03.561Z,8928
2018-05-25T06:16:13.267Z,8968
2018-05-25T06:17:22.987Z,9024
2018-05-25T06:18:32.983Z,9088
2018-05-25T06:19:42.965Z,9152
2018-05-25T06:20:52.936Z,9224
2018-05-25T06:22:02.928Z,9276
2018-05-25T06:23:12.918Z,9336
2018-05-25T06:24:22.925Z,9380
2018-05-25T06:25:32.705Z,9432
2018-05-25T06:26:42.683Z,9500
2018-05-25T06:27:52.654Z,9524
2018-05-25T06:29:02.648Z,9608
2018-05-25T06:30:12.645Z,9652
2018-05-25T06:31:22.624Z,9672
2018-05-25T06:32:32.607Z,9692
2018-05-25T06:33:42.327Z,9732
2018-05-25T06:34:51.881Z,9768
2018-05-25T06:36:02.043Z,9804
2018-05-25T06:37:12.014Z,9800
2018-05-25T06:38:21.994Z,9836
2018-05-25T06:39:31.968Z,9880
2018-05-25T06:40:41.680Z,9932
2018-05-25T06:41:51.503Z,9972
2018-05-25T06:43:01.477Z,10040
2018-05-25T06:44:11.475Z,10088
2018-05-25T06:45:21.464Z,10140
2018-05-25T06:46:31.186Z,10168
2018-05-25T06:47:41.163Z,10120
2018-05-25T06:48:51.127Z,10120
2018-05-25T06:50:01.112Z,10172
2018-05-25T06:51:10.855Z,10200
2018-05-25T06:52:20.858Z,10216
2018-05-25T06:53:30.637Z,10240
2018-05-25T06:54:40.359Z,10244
2018-05-25T06:55:50.074Z,10272
2018-05-25T06:57:00.054Z,10280
2018-05-25T06:58:09.921Z,10300
2018-05-25T06:59:19.661Z,10328
2018-05-25T07:00:29.745Z,10356
2018-05-25T07:01:39.745Z,10392
2018-05-25T07:02:49.758Z,10400
2018-05-25T07:04:00.188Z,10420
2018-05-25T07:05:10.061Z,10416
2018-05-25T07:06:20.079Z,10440
2018-05-25T07:07:30.163Z,10468
2018-05-25T07:08:39.881Z,10492
2018-05-25T07:09:49.872Z,10524
2018-05-25T07:10:59.850Z,10556
2018-05-25T07:12:09.879Z,10596
2018-05-25T07:13:19.356Z,10636
2018-05-25T07:14:29.414Z,10668
2018-05-25T07:15:39.174Z,10684
2018-05-25T07:16:49.170Z,10732
2018-05-25T07:17:59.170Z,10772
2018-05-25T07:19:08.920Z,10816
2018-05-25T07:20:19.240Z,10836
2018-05-25T07:21:29.251Z,10884
2018-05-25T07:22:38.984Z,10928
2018-05-25T07:23:48.986Z,10964
2018-05-25T07:24:58.718Z,11008
2018-05-25T07:26:08.193Z,11056
2018-05-25T07:27:18.195Z,11112
2018-05-25T07:28:27.923Z,11172
2018-05-25T07:29:37.927Z,11220
2018-05-25T07:30:47.918Z,11284
2018-05-25T07:31:57.906Z,11332
2018-05-25T07:33:07.907Z,11388
2018-05-25T07:34:17.889Z,11420
2018-05-25T07:35:27.619Z,11472
2018-05-25T07:36:37.599Z,11492
2018-05-25T07:37:47.578Z,11528
2018-05-25T07:38:57.607Z,11564
2018-05-25T07:40:07.597Z,11600
2018-05-25T07:41:17.582Z,11632
2018-05-25T07:42:27.549Z,11684
2018-05-25T07:43:37.524Z,11728
2018-05-25T07:44:47.507Z,11768
2018-05-25T07:45:57.516Z,11796
2018-05-25T07:47:07.238Z,11840
2018-05-25T07:48:16.976Z,11868
2018-05-25T07:49:26.962Z,11896
2018-05-25T07:50:36.690Z,11916
2018-05-25T07:51:46.734Z,11968
2018-05-25T07:52:56.473Z,12004
2018-05-25T07:54:06.190Z,12044
2018-05-25T07:55:15.909Z,12084
2018-05-25T07:56:25.941Z,12116
2018-05-25T07:57:35.978Z,12148
2018-05-25T07:58:45.708Z,12188
2018-05-25T07:59:55.683Z,12204
2018-05-25T08:01:05.633Z,12200
2018-05-25T08:02:15.894Z,12240
2018-05-25T08:03:25.884Z,12316
2018-05-25T08:04:35.880Z,12380
2018-05-25T08:05:45.625Z,12432
2018-05-25T08:06:55.615Z,12464
2018-05-25T08:08:05.603Z,12504
2018-05-25T08:09:15.340Z,12544
2018-05-25T08:10:25.336Z,12588
2018-05-25T08:11:35.074Z,12632
2018-05-25T08:12:44.829Z,12660
2018-05-25T08:13:54.827Z,12680
2018-05-25T08:15:04.816Z,12732
2018-05-25T08:16:15.069Z,12780
2018-05-25T08:17:25.047Z,12864
2018-05-25T08:18:34.800Z,12944
2018-05-25T08:19:44.554Z,13008
2018-05-25T08:20:54.340Z,13024
2018-05-25T08:22:04.632Z,13052
2018-05-25T08:23:14.644Z,13108
2018-05-25T08:24:24.637Z,13160
2018-05-25T08:25:34.629Z,13216
2018-05-25T08:26:44.649Z,13324
2018-05-25T08:27:54.393Z,15212
2018-05-25T08:29:04.391Z,35776
2018-05-25T08:30:14.186Z,47584
2018-05-25T08:31:24.312Z,49408
2018-05-25T08:32:34.351Z,51104
2018-05-25T08:33:44.366Z,51552
2018-05-25T08:34:54.123Z,50112
2018-05-25T08:36:04.128Z,47936
2018-05-25T08:37:14.139Z,49952
2018-05-25T08:38:24.146Z,50944
2018-05-25T08:39:34.163Z,50944
2018-05-25T08:40:44.163Z,52192
2018-05-25T08:41:54.159Z,51168
2018-05-25T08:43:04.175Z,51488
2018-05-25T08:44:13.912Z,52832
2018-05-25T08:45:23.927Z,54880
2018-05-25T08:46:34.045Z,56768
2018-05-25T08:47:44.033Z,55328
2018-05-25T08:48:53.503Z,56864
2018-05-25T08:50:03.235Z,58304
2018-05-25T08:51:12.756Z,59264
2018-05-25T08:52:22.758Z,60640
2018-05-25T08:53:32.749Z,59424
2018-05-25T08:54:42.487Z,57728
2018-05-25T08:55:52.223Z,56320
2018-05-25T08:57:01.951Z,57344
2018-05-25T08:58:11.721Z,59328
2018-05-25T08:59:21.729Z,60352
2018-05-25T09:00:31.537Z,61760
2018-05-25T09:01:41.526Z,61344
2018-05-25T09:02:51.568Z,60800
2018-05-25T09:04:01.432Z,58944
2018-05-25T09:05:11.444Z,61056
2018-05-25T09:06:21.451Z,60928
2018-05-25T09:07:31.300Z,60288
2018-05-25T09:08:41.420Z,61440
2018-05-25T09:09:51.410Z,63616
2018-05-25T09:11:01.439Z,64864
2018-05-25T09:12:11.209Z,63520
2018-05-25T09:13:21.230Z,63200
2018-05-25T09:14:30.999Z,62272
2018-05-25T09:15:40.775Z,66688
2018-05-25T09:16:50.500Z,67168
2018-05-25T09:18:00.481Z,69056
2018-05-25T09:19:10.222Z,67136
2018-05-25T09:20:19.939Z,66528
2018-05-25T09:21:29.932Z,69376
2018-05-25T09:22:39.935Z,67552
2018-05-25T09:23:49.666Z,67296
2018-05-25T09:24:59.399Z,71904
2018-05-25T09:26:09.402Z,72352
2018-05-25T09:27:19.413Z,72416
2018-05-25T09:28:29.419Z,75040
2018-05-25T09:29:39.223Z,76096
2018-05-25T09:30:49.008Z,76000
2018-05-25T09:31:59.064Z,75104
2018-05-25T09:33:09.071Z,77408
2018-05-25T09:34:18.827Z,76960
2018-05-25T09:35:28.820Z,79968
2018-05-25T09:36:38.565Z,82592
2018-05-25T09:37:48.580Z,79072
2018-05-25T09:38:58.586Z,79264
2018-05-25T09:40:08.590Z,80544
2018-05-25T09:41:18.595Z,80352
2018-05-25T09:42:28.371Z,78560
2018-05-25T09:43:38.507Z,84608
2018-05-25T09:44:48.509Z,82848
2018-05-25T09:45:58.274Z,79264
2018-05-25T09:47:08.260Z,88672
2018-05-25T09:48:18.025Z,90432
2018-05-25T09:49:28.024Z,85696
2018-05-25T09:50:37.769Z,87424
2018-05-25T09:51:47.776Z,88320
2018-05-25T09:52:57.779Z,88704
2018-05-25T09:54:07.781Z,92864
2018-05-25T09:55:17.803Z,96736
2018-05-25T09:56:27.824Z,93600
2018-05-25T09:57:37.567Z,31136
2018-05-25T09:58:47.303Z,97600
2018-05-25T09:59:57.357Z,96384
2018-05-25T10:01:07.088Z,92160
2018-05-25T10:02:16.558Z,98464
2018-05-25T10:03:26.579Z,97312
2018-05-25T10:04:36.060Z,72032
2018-05-25T10:05:46.142Z,97152
2018-05-25T10:06:56.140Z,98688
2018-05-25T10:08:06.158Z,96320
2018-05-25T10:09:16.213Z,96576
2018-05-25T10:10:26.040Z,104032
2018-05-25T10:11:36.067Z,102848
2018-05-25T10:12:45.829Z,100608
2018-05-25T10:13:55.827Z,101952
2018-05-25T10:15:05.835Z,105632
2018-05-25T10:16:15.847Z,36320
2018-05-25T10:17:25.869Z,79072
2018-05-25T10:18:35.879Z,41920
2018-05-25T10:19:45.885Z,70272
2018-05-25T10:20:55.354Z,111040
2018-05-25T10:22:05.349Z,111200
2018-05-25T10:23:15.374Z,108224
2018-05-25T10:24:25.389Z,111296
2018-05-25T10:25:35.131Z,112288
2018-05-25T10:26:45.149Z,28480
2018-05-25T10:27:54.874Z,115616
2018-05-25T10:29:04.886Z,114816
2018-05-25T10:30:14.961Z,112032
2018-05-25T10:31:24.727Z,112576
2018-05-25T10:32:34.712Z,30144
2018-05-25T10:33:44.743Z,111264
2018-05-25T10:34:54.736Z,112704
2018-05-25T10:36:04.731Z,118208
2018-05-25T10:37:14.747Z,55776
2018-05-25T10:38:24.501Z,32960
2018-05-25T10:39:34.499Z,107136
2018-05-25T10:40:44.503Z,27360
2018-05-25T10:41:54.732Z,26048
2018-05-25T10:43:04.938Z,31872
2018-05-25T10:44:14.947Z,119104
2018-05-25T10:45:24.952Z,118400
2018-05-25T10:46:34.948Z,113344
2018-05-25T10:47:44.708Z,119680
2018-05-25T10:48:54.185Z,119520
2018-05-25T10:50:04.211Z,109600
2018-05-25T10:51:14.210Z,118688
2018-05-25T10:52:23.956Z,126400
2018-05-25T10:53:34.165Z,119072
2018-05-25T10:54:43.901Z,114976
2018-05-25T10:55:53.975Z,122240
2018-05-25T10:57:04.081Z,126208
2018-05-25T10:58:14.095Z,28544
2018-05-25T10:59:24.137Z,107104
2018-05-25T11:00:34.099Z,120352
2018-05-25T11:01:44.092Z,120672
2018-05-25T11:02:53.577Z,119520
2018-05-25T11:04:03.573Z,123328
2018-05-25T11:05:13.578Z,126240
2018-05-25T11:06:23.566Z,120960
2018-05-25T11:07:33.305Z,116576
2018-05-25T11:08:43.041Z,123360
2018-05-25T11:09:53.038Z,129792
2018-05-25T11:11:03.090Z,131680
2018-05-25T11:12:13.104Z,119360
2018-05-25T11:13:23.109Z,121728
2018-05-25T11:14:33.096Z,116832
2018-05-25T11:15:42.863Z,110272
2018-05-25T11:16:52.878Z,121184
2018-05-25T11:18:02.887Z,95616
2018-05-25T11:19:12.906Z,130656
2018-05-25T11:20:22.953Z,34656
2018-05-25T11:21:32.981Z,125376
2018-05-25T11:22:43.012Z,124576
2018-05-25T11:23:53.011Z,125568
2018-05-25T11:25:03.014Z,113856
2018-05-25T11:26:13.009Z,117664
2018-05-25T11:27:23.044Z,53344
2018-05-25T11:28:32.785Z,119840
2018-05-25T11:29:42.791Z,126080
2018-05-25T11:30:52.536Z,119328
2018-05-25T11:32:02.273Z,121600
2018-05-25T11:33:12.272Z,126176
2018-05-25T11:34:22.260Z,132448
2018-05-25T11:35:32.267Z,127648
2018-05-25T11:36:42.042Z,128832
2018-05-25T11:37:52.041Z,133408
2018-05-25T11:39:02.052Z,143936
2018-05-25T11:40:12.064Z,139776
2018-05-25T11:41:21.811Z,134976
2018-05-25T11:42:31.806Z,137888
2018-05-25T11:43:41.792Z,130784
2018-05-25T11:44:51.789Z,116928
2018-05-25T11:46:01.803Z,113408
2018-05-25T11:47:11.558Z,125664
2018-05-25T11:48:21.559Z,133664
2018-05-25T11:49:31.043Z,130368
2018-05-25T11:50:41.087Z,116384
2018-05-25T11:51:50.853Z,95712
2018-05-25T11:53:00.609Z,126912
2018-05-25T11:54:10.761Z,132992
2018-05-25T11:55:20.550Z,137568
2018-05-25T11:56:30.294Z,129472
2018-05-25T11:57:40.308Z,120448
2018-05-25T11:58:50.061Z,103872
2018-05-25T12:00:00.058Z,99840
2018-05-25T12:01:09.803Z,97568
2018-05-25T12:02:19.806Z,101824
2018-05-25T12:03:29.820Z,94080
2018-05-25T12:04:39.553Z,99904
2018-05-25T12:05:49.552Z,98912
2018-05-25T12:06:59.296Z,103872
2018-05-25T12:08:09.565Z,104736
2018-05-25T12:09:19.058Z,111680
2018-05-25T12:10:29.057Z,122560
2018-05-25T12:11:39.050Z,133152
2018-05-25T12:12:48.777Z,119104
2018-05-25T12:13:58.804Z,126048
2018-05-25T12:15:08.797Z,133664
2018-05-25T12:16:18.795Z,60000
2018-05-25T12:17:28.801Z,49376
2018-05-25T12:18:38.542Z,125312
2018-05-25T12:19:48.301Z,128704
2018-05-25T12:20:58.289Z,129056
2018-05-25T12:22:08.018Z,139552
2018-05-25T12:23:18.013Z,141888
2018-05-25T12:24:27.501Z,135136
2018-05-25T12:25:37.520Z,45472
2018-05-25T12:26:47.279Z,63616
2018-05-25T12:27:56.504Z,133760
2018-05-25T12:29:06.543Z,142560
2018-05-25T12:30:16.015Z,143360
2018-05-25T12:31:25.751Z,132192
2018-05-25T12:32:35.501Z,128256
2018-05-25T12:33:45.497Z,132928
2018-05-25T12:34:55.495Z,141984
2018-05-25T12:36:05.230Z,129568
2018-05-25T12:37:15.228Z,127328
2018-05-25T12:38:25.238Z,134976
2018-05-25T12:39:35.255Z,133760
2018-05-25T12:40:44.985Z,137408
2018-05-25T12:41:54.454Z,145152
2018-05-25T12:43:04.477Z,143072
2018-05-25T12:44:14.467Z,136320
2018-05-25T12:45:24.205Z,135424
2018-05-25T12:46:34.200Z,134144
2018-05-25T12:47:44.195Z,135840
2018-05-25T12:48:54.464Z,135168
2018-05-25T12:50:04.451Z,135040
2018-05-25T12:51:14.195Z,137024
2018-05-25T12:52:24.177Z,137440
2018-05-25T12:53:34.195Z,127520
2018-05-25T12:54:44.193Z,122560
2018-05-25T12:55:53.918Z,133728
2018-05-25T12:57:03.904Z,133568
2018-05-25T12:58:13.664Z,134976
2018-05-25T12:59:23.673Z,141376
2018-05-25T13:00:33.669Z,139808
2018-05-25T13:01:43.399Z,136192
2018-05-25T13:02:53.148Z,125792
2018-05-25T13:04:03.172Z,127360
2018-05-25T13:05:12.928Z,122432
2018-05-25T13:06:22.943Z,110176
2018-05-25T13:07:32.945Z,68448
2018-05-25T13:08:42.947Z,74592
2018-05-25T13:09:52.960Z,51040
2018-05-25T13:11:02.968Z,62016
2018-05-25T13:12:12.721Z,42336
2018-05-25T13:13:22.712Z,97504
2018-05-25T13:14:32.178Z,82720
2018-05-25T13:15:42.177Z,109248
2018-05-25T13:16:51.655Z,65312
2018-05-25T13:18:01.376Z,76128
2018-05-25T13:19:11.109Z,124096
2018-05-25T13:20:21.124Z,119264
2018-05-25T13:21:31.151Z,123104
2018-05-25T13:22:41.137Z,112128
2018-05-25T13:23:51.134Z,111584
2018-05-25T13:25:01.126Z,109536
2018-05-25T13:26:10.875Z,127552
2018-05-25T13:27:20.885Z,103584
2018-05-25T13:28:30.875Z,120512
2018-05-25T13:29:40.890Z,113312
2018-05-25T13:30:50.615Z,104896
2018-05-25T13:32:00.599Z,53664
2018-05-25T13:33:10.599Z,52896
2018-05-25T13:34:20.605Z,111808
2018-05-25T13:35:30.335Z,110240
2018-05-25T13:36:40.339Z,104960
2018-05-25T13:37:50.346Z,83104
2018-05-25T13:39:00.050Z,91072
2018-05-25T13:40:10.054Z,93216
2018-05-25T13:41:20.064Z,108672
2018-05-25T13:42:29.795Z,103264
2018-05-25T13:43:39.793Z,105312
2018-05-25T13:44:49.799Z,114080
2018-05-25T13:45:59.800Z,47872
2018-05-25T13:47:09.527Z,39776
2018-05-25T13:48:19.533Z,70592
2018-05-25T13:49:29.606Z,116416
2018-05-25T13:50:39.344Z,44224
2018-05-25T13:51:49.101Z,40032
2018-05-25T13:52:59.091Z,40736
2018-05-25T13:54:08.835Z,44672
2018-05-25T13:55:18.840Z,100064
2018-05-25T13:56:28.846Z,111680
2018-05-25T13:57:38.589Z,112608
2018-05-25T13:58:48.313Z,104064
2018-05-25T13:59:58.301Z,94336
2018-05-25T14:01:08.277Z,99008
2018-05-25T14:02:17.744Z,88480
2018-05-25T14:03:27.728Z,33504
2018-05-25T14:04:37.472Z,33472
2018-05-25T14:05:47.219Z,32288
2018-05-25T14:06:57.207Z,32160
2018-05-25T14:08:07.203Z,45280
2018-05-25T14:09:17.231Z,109056
2018-05-25T14:10:26.961Z,97472
2018-05-25T14:11:36.697Z,112992
2018-05-25T14:12:46.432Z,124192
2018-05-25T14:13:56.444Z,125824
2018-05-25T14:15:06.615Z,121632
2018-05-25T14:16:16.627Z,118688
2018-05-25T14:17:26.627Z,113824
2018-05-25T14:18:36.356Z,108224
2018-05-25T14:19:46.115Z,101792
2018-05-25T14:20:56.123Z,108960
2018-05-25T14:22:06.135Z,83616
2018-05-25T14:23:15.894Z,120512
2018-05-25T14:24:25.653Z,116576
2018-05-25T14:25:35.656Z,119104
2018-05-25T14:26:45.674Z,121536
2018-05-25T14:27:55.682Z,115680
2018-05-25T14:29:05.414Z,120256
2018-05-25T14:30:15.405Z,121696
2018-05-25T14:31:25.457Z,119360
2018-05-25T14:32:35.237Z,116672
2018-05-25T14:33:45.233Z,109568
2018-05-25T14:34:55.225Z,88032
2018-05-25T14:36:05.306Z,114848
2018-05-25T14:37:15.263Z,113472
2018-05-25T14:38:25.288Z,110144
2018-05-25T14:39:35.022Z,117664
2018-05-25T14:40:44.755Z,112672
2018-05-25T14:41:54.529Z,105696
2018-05-25T14:43:04.524Z,116352
2018-05-25T14:44:14.285Z,120160
2018-05-25T14:45:24.278Z,118816
2018-05-25T14:46:34.286Z,116384
2018-05-25T14:47:44.297Z,117760
2018-05-25T14:48:54.315Z,115296
2018-05-25T14:50:04.065Z,110208
2018-05-25T14:51:14.135Z,113024
2018-05-25T14:52:23.893Z,109856
2018-05-25T14:53:33.879Z,103520
2018-05-25T14:54:43.672Z,111648
2018-05-25T14:55:53.668Z,111744
2018-05-25T14:57:03.681Z,107968
2018-05-25T14:58:13.409Z,103680
2018-05-25T14:59:23.446Z,100928
2018-05-25T15:00:33.183Z,99200
2018-05-25T15:01:42.920Z,99040
2018-05-25T15:02:52.918Z,108192
2018-05-25T15:04:02.651Z,104128
2018-05-25T15:05:12.388Z,104096
2018-05-25T15:06:22.397Z,102624
2018-05-25T15:07:32.141Z,101408
2018-05-25T15:08:41.867Z,101696
2018-05-25T15:09:52.032Z,103424
2018-05-25T15:11:01.772Z,104800
2018-05-25T15:12:11.801Z,107616
2018-05-25T15:13:21.804Z,100832
2018-05-25T15:14:31.850Z,102240
2018-05-25T15:15:41.586Z,105280
2018-05-25T15:16:51.619Z,99168
2018-05-25T15:18:01.349Z,99488
2018-05-25T15:19:11.387Z,96160
2018-05-25T15:20:21.125Z,97888
2018-05-25T15:21:30.853Z,99360